createdAt,value
2023-03-11T00:00:52.147Z,96.4755859375
2023-03-11T00:01:52.159Z,95.7841796875
2023-03-11T00:02:54.549Z,95.8212890625
2023-03-11T00:03:52.543Z,95.7744140625
2023-03-11T00:04:52.257Z,95.6357421875
2023-03-11T00:05:52.113Z,94.8408203125
2023-03-11T00:06:52.100Z,93.5869140625
2023-03-11T00:07:52.532Z,92.4443359375
2023-03-11T00:08:52.195Z,91.6943359375
2023-03-11T00:09:52.110Z,91.44140625
2023-03-11T00:10:52.116Z,90.888671875
2023-03-11T00:11:52.121Z,90.994140625
2023-03-11T00:12:52.137Z,90.904296875
2023-03-11T00:13:57.011Z,91.0517578125
2023-03-11T00:14:52.191Z,90.8515625
2023-03-11T00:15:52.113Z,90.8193359375
2023-03-11T00:16:52.242Z,90.6201171875
2023-03-11T00:17:52.128Z,90.6328125
2023-03-11T00:18:52.536Z,90.90625
2023-03-11T00:19:52.214Z,91.697265625
2023-03-11T00:20:52.223Z,91.20703125
2023-03-11T00:21:52.146Z,90.6328125
2023-03-11T00:22:52.530Z,90.46875
2023-03-11T00:23:52.543Z,90.40234375
2023-03-11T00:24:54.489Z,90.216796875
2023-03-11T00:25:52.213Z,90.18359375
2023-03-11T00:26:52.115Z,89.966796875
2023-03-11T00:27:52.235Z,88.79296875
2023-03-11T00:28:52.232Z,88.1875
2023-03-11T00:29:52.125Z,88.1982421875
2023-03-11T00:30:52.143Z,87.9775390625
2023-03-11T00:31:52.111Z,87.90234375
2023-03-11T00:32:52.223Z,87.734375
2023-03-11T00:33:52.524Z,87.431640625
2023-03-11T00:34:52.226Z,87.3955078125
2023-03-11T00:35:54.602Z,87.0703125
2023-03-11T00:36:52.105Z,87.4296875
2023-03-11T00:37:52.514Z,87.021484375
2023-03-11T00:38:52.553Z,87.0830078125
2023-03-11T00:39:52.130Z,87.4990234375
2023-03-11T00:40:52.136Z,87.4248046875
2023-03-11T00:41:52.121Z,87.6962890625
2023-03-11T00:42:52.130Z,87.8037109375
2023-03-11T00:43:52.531Z,87.298828125
2023-03-11T00:44:52.121Z,87.4296875
2023-03-11T00:45:52.177Z,87.0556640625
2023-03-11T00:46:54.540Z,87.5068359375
2023-03-11T00:47:52.132Z,87.6796875
2023-03-11T00:48:52.513Z,87.751953125
2023-03-11T00:49:52.198Z,88.060546875
2023-03-11T00:50:52.123Z,88.46484375
2023-03-11T00:51:52.132Z,88.5087890625
2023-03-11T00:52:52.523Z,88.0166015625
2023-03-11T00:53:52.534Z,88.3642578125
2023-03-11T00:54:52.234Z,88.58984375
2023-03-11T00:55:52.249Z,88.7431640625
2023-03-11T00:56:52.204Z,88.4736328125
2023-03-11T00:57:54.495Z,88.72265625
2023-03-11T00:58:52.542Z,89.1318359375
2023-03-11T00:59:52.233Z,89.8095703125
2023-03-11T01:00:52.123Z,89.501953125
2023-03-11T01:01:52.125Z,89.783203125
2023-03-11T01:02:52.108Z,89.9833984375
2023-03-11T01:03:52.547Z,89.5673828125
2023-03-11T01:04:52.214Z,89.8271484375
2023-03-11T01:05:52.126Z,90.033203125
2023-03-11T01:06:52.123Z,90.1259765625
2023-03-11T01:07:52.537Z,89.8984375
2023-03-11T01:08:57.012Z,89.7080078125
2023-03-11T01:09:52.137Z,89.82421875
2023-03-11T01:10:52.166Z,89.7001953125
2023-03-11T01:11:52.119Z,89.634765625
2023-03-11T01:12:52.165Z,89.7255859375
2023-03-11T01:13:52.527Z,89.662109375
2023-03-11T01:14:52.106Z,89.0908203125
2023-03-11T01:15:52.120Z,89.18359375
2023-03-11T01:16:52.123Z,89.474609375
2023-03-11T01:17:52.090Z,89.0927734375
2023-03-11T01:18:52.549Z,88.697265625
2023-03-11T01:19:54.490Z,88.9013671875
2023-03-11T01:20:52.287Z,88.2490234375
2023-03-11T01:21:52.122Z,87.9638671875
2023-03-11T01:22:52.520Z,87.8798828125
2023-03-11T01:23:52.528Z,87.9072265625
2023-03-11T01:24:52.133Z,88.1943359375
2023-03-11T01:25:52.120Z,88.24609375
2023-03-11T01:26:52.193Z,88.2734375
2023-03-11T01:27:52.131Z,88.671875
2023-03-11T01:28:52.522Z,88.6962890625
2023-03-11T01:29:52.130Z,88.6923828125
2023-03-11T01:30:54.549Z,88.6123046875
2023-03-11T01:31:52.126Z,88.6826171875
2023-03-11T01:32:52.185Z,89.02734375
2023-03-11T01:33:52.502Z,89.3837890625
2023-03-11T01:34:52.123Z,89.5478515625
2023-03-11T01:35:52.190Z,89.3291015625
2023-03-11T01:36:52.100Z,89.826171875
2023-03-11T01:37:52.526Z,90.6630859375
2023-03-11T01:38:52.534Z,91.2939453125
2023-03-11T01:39:52.106Z,91.708984375
2023-03-11T01:40:52.144Z,91.595703125
2023-03-11T01:41:54.484Z,91.9814453125
2023-03-11T01:42:52.107Z,92.162109375
2023-03-11T01:43:52.522Z,92.0205078125
2023-03-11T01:44:52.123Z,92.017578125
2023-03-11T01:45:52.110Z,91.537109375
2023-03-11T01:46:52.262Z,91.66796875
2023-03-11T01:47:52.100Z,91.9609375
2023-03-11T01:48:52.533Z,92.1875
2023-03-11T01:49:52.113Z,92.326171875
2023-03-11T01:50:52.119Z,92.736328125
2023-03-11T01:51:52.132Z,92.392578125
2023-03-11T01:52:56.953Z,92.6728515625
2023-03-11T01:53:52.494Z,92.4736328125
2023-03-11T01:54:52.251Z,92.4462890625
2023-03-11T01:55:52.106Z,92.8291015625
2023-03-11T01:56:52.100Z,93.10546875
2023-03-11T01:57:52.092Z,93.1591796875
2023-03-11T01:58:52.231Z,93.4267578125
2023-03-11T01:59:52.128Z,93.7763671875
2023-03-11T02:00:52.182Z,94.076171875
2023-03-11T02:01:52.149Z,94.1787109375
2023-03-11T02:02:52.154Z,94.4169921875
2023-03-11T02:03:57.017Z,94.4833984375
2023-03-11T02:04:52.136Z,94.15625
2023-03-11T02:05:52.119Z,94.326171875
2023-03-11T02:06:54.076Z,94.484375
2023-03-11T02:07:52.528Z,94.3125
2023-03-11T02:08:52.533Z,94.48828125
2023-03-11T02:09:52.120Z,94.4365234375
2023-03-11T02:10:52.104Z,94.5439453125
2023-03-11T02:11:52.146Z,94.3193359375
2023-03-11T02:12:52.124Z,94.0146484375
2023-03-11T02:13:52.534Z,94.21484375
2023-03-11T02:14:54.435Z,94.0107421875
2023-03-11T02:15:52.182Z,93.5439453125
2023-03-11T02:16:52.136Z,93.6328125
2023-03-11T02:17:52.116Z,93.697265625
2023-03-11T02:18:52.531Z,93.4765625
2023-03-11T02:19:52.126Z,93.244140625
2023-03-11T02:20:52.249Z,93.04296875
2023-03-11T02:21:52.147Z,92.18359375
2023-03-11T02:22:52.508Z,91.7353515625
2023-03-11T02:23:52.511Z,91.125
2023-03-11T02:24:52.124Z,90.533203125
2023-03-11T02:25:54.594Z,90.068359375
2023-03-11T02:26:52.124Z,89.4462890625
2023-03-11T02:27:52.108Z,89.640625
2023-03-11T02:28:52.521Z,89.57421875
2023-03-11T02:29:52.205Z,89.416015625
2023-03-11T02:30:52.266Z,89.1953125
2023-03-11T02:31:52.223Z,88.7275390625
2023-03-11T02:32:52.143Z,88.6474609375
2023-03-11T02:33:52.531Z,88.6357421875
2023-03-11T02:34:52.148Z,88.759765625
2023-03-11T02:35:52.162Z,88.310546875
2023-03-11T02:36:54.493Z,88.7412109375
2023-03-11T02:37:52.519Z,89.009765625
2023-03-11T02:38:52.514Z,88.767578125
2023-03-11T02:39:52.130Z,89.130859375
2023-03-11T02:40:52.119Z,89.8505859375
2023-03-11T02:41:52.120Z,90.1376953125
2023-03-11T02:42:52.193Z,90.2060546875
2023-03-11T02:43:52.527Z,90.189453125
2023-03-11T02:44:52.086Z,90.08984375
2023-03-11T02:45:52.125Z,89.6279296875
2023-03-11T02:46:52.138Z,89.927734375
2023-03-11T02:47:54.610Z,90.2294921875
2023-03-11T02:48:52.517Z,89.900390625
2023-03-11T02:49:52.125Z,90.1708984375
2023-03-11T02:50:52.138Z,90.1728515625
2023-03-11T02:51:52.121Z,90.41015625
2023-03-11T02:52:52.539Z,90.34375
2023-03-11T02:53:52.531Z,90.498046875
2023-03-11T02:54:52.226Z,90.1708984375
2023-03-11T02:55:52.238Z,90.345703125
2023-03-11T02:56:52.116Z,90.435546875
2023-03-11T02:57:52.105Z,90.6171875
2023-03-11T02:58:56.970Z,90.744140625
2023-03-11T02:59:52.095Z,90.81640625
2023-03-11T03:00:52.160Z,90.9150390625
2023-03-11T03:01:52.192Z,90.9033203125
2023-03-11T03:02:52.120Z,90.90234375
2023-03-11T03:03:52.619Z,91.01953125
2023-03-11T03:04:52.102Z,91.03125
2023-03-11T03:05:52.119Z,91.333984375
2023-03-11T03:06:52.120Z,91.4736328125
2023-03-11T03:07:52.515Z,91.482421875
2023-03-11T03:08:52.511Z,91.607421875
2023-03-11T03:09:54.559Z,91.5380859375
2023-03-11T03:10:52.118Z,91.37109375
2023-03-11T03:11:52.112Z,91.4384765625
2023-03-11T03:12:52.121Z,91.447265625
2023-03-11T03:13:52.509Z,91.4345703125
2023-03-11T03:14:52.141Z,91.50390625
2023-03-11T03:15:52.112Z,91.4423828125
2023-03-11T03:16:52.282Z,91.1767578125
2023-03-11T03:17:52.136Z,91.1240234375
2023-03-11T03:18:52.508Z,91.296875
2023-03-11T03:19:52.137Z,91.03515625
2023-03-11T03:20:54.486Z,90.677734375
2023-03-11T03:21:52.120Z,90.546875
2023-03-11T03:22:52.514Z,90.6416015625
2023-03-11T03:23:52.512Z,90.6494140625
2023-03-11T03:24:52.111Z,90.328125
2023-03-11T03:25:52.091Z,89.7978515625
2023-03-11T03:26:52.100Z,89.6884765625
2023-03-11T03:27:52.122Z,89.595703125
2023-03-11T03:28:52.529Z,89.802734375
2023-03-11T03:29:52.250Z,89.8740234375
2023-03-11T03:30:52.241Z,89.68359375
2023-03-11T03:31:54.602Z,89.802734375
2023-03-11T03:32:52.284Z,89.814453125
2023-03-11T03:33:52.519Z,90.169921875
2023-03-11T03:34:52.124Z,89.828125
2023-03-11T03:35:52.145Z,90.0947265625
2023-03-11T03:36:52.237Z,90.166015625
2023-03-11T03:37:52.533Z,89.857421875
2023-03-11T03:38:52.532Z,90.0966796875
2023-03-11T03:39:52.129Z,90.16796875
2023-03-11T03:40:52.111Z,90.16796875
2023-03-11T03:41:52.119Z,90.2294921875
2023-03-11T03:42:54.482Z,90.16015625
2023-03-11T03:43:52.517Z,90.44921875
2023-03-11T03:44:52.107Z,90.712890625
2023-03-11T03:45:52.184Z,90.3037109375
2023-03-11T03:46:52.106Z,90.1728515625
2023-03-11T03:47:52.128Z,90.4580078125
2023-03-11T03:48:52.516Z,90.271484375
2023-03-11T03:49:52.122Z,90.294921875
2023-03-11T03:50:52.109Z,90.2421875
2023-03-11T03:51:52.252Z,90.017578125
2023-03-11T03:52:52.538Z,89.541015625
2023-03-11T03:53:56.937Z,89.43359375
2023-03-11T03:54:52.130Z,89.6123046875
2023-03-11T03:55:52.122Z,89.6484375
2023-03-11T03:56:52.120Z,89.5263671875
2023-03-11T03:57:52.131Z,89.265625
2023-03-11T03:58:52.512Z,89.09765625
2023-03-11T03:59:52.120Z,89.1142578125
2023-03-11T04:00:52.134Z,88.90234375
2023-03-11T04:01:52.142Z,88.734375
2023-03-11T04:02:52.113Z,89.056640625
2023-03-11T04:03:52.528Z,88.80078125
2023-03-11T04:04:54.487Z,88.7607421875
2023-03-11T04:05:52.100Z,88.173828125
2023-03-11T04:06:52.135Z,87.67578125
2023-03-11T04:07:52.531Z,87.599609375
2023-03-11T04:08:52.526Z,87.1103515625
2023-03-11T04:09:52.130Z,87.0810546875
2023-03-11T04:10:52.218Z,87.189453125
2023-03-11T04:11:52.116Z,86.8076171875
2023-03-11T04:12:52.118Z,86.6513671875
2023-03-11T04:13:52.545Z,86.3984375
2023-03-11T04:14:52.218Z,86.7353515625
2023-03-11T04:15:54.468Z,86.419921875
2023-03-11T04:16:52.300Z,86.7587890625
2023-03-11T04:17:52.243Z,86.7392578125
2023-03-11T04:18:52.522Z,87.0009765625
2023-03-11T04:19:52.110Z,87.0693359375
2023-03-11T04:20:52.128Z,87.224609375
2023-03-11T04:21:52.140Z,86.923828125
2023-03-11T04:22:52.529Z,86.689453125
2023-03-11T04:23:52.546Z,86.451171875
2023-03-11T04:24:52.125Z,86.048828125
2023-03-11T04:25:52.094Z,86.142578125
2023-03-11T04:26:54.543Z,86.2353515625
2023-03-11T04:27:52.126Z,86.083984375
2023-03-11T04:28:53.677Z,86.3544921875
2023-03-11T04:29:52.129Z,86.216796875
2023-03-11T04:30:52.296Z,86.11328125
2023-03-11T04:31:52.129Z,85.9111328125
2023-03-11T04:32:52.293Z,85.78515625
2023-03-11T04:33:52.529Z,85.8671875
2023-03-11T04:34:52.109Z,85.6689453125
2023-03-11T04:35:52.402Z,85.486328125
2023-03-11T04:36:52.262Z,85.3828125
2023-03-11T04:37:57.017Z,85.3876953125
2023-03-11T04:38:52.512Z,85.1962890625
2023-03-11T04:39:52.144Z,85.076171875
2023-03-11T04:40:52.134Z,85.3154296875
2023-03-11T04:41:52.131Z,85.0537109375
2023-03-11T04:42:52.102Z,84.6572265625
2023-03-11T04:43:52.523Z,84.4599609375
2023-03-11T04:44:52.246Z,84.2353515625
2023-03-11T04:45:52.109Z,84.2822265625
2023-03-11T04:46:52.123Z,84.107421875
2023-03-11T04:47:52.107Z,84.1875
2023-03-11T04:48:56.971Z,84.2734375
2023-03-11T04:49:52.254Z,83.916015625
2023-03-11T04:50:52.102Z,83.8828125
2023-03-11T04:51:52.100Z,83.845703125
2023-03-11T04:52:52.513Z,83.501953125
2023-03-11T04:53:52.529Z,83.5546875
2023-03-11T04:54:52.096Z,84.033203125
2023-03-11T04:55:52.134Z,84.685546875
2023-03-11T04:56:52.118Z,84.7119140625
2023-03-11T04:57:52.188Z,84.8212890625
2023-03-11T04:58:52.523Z,85.0546875
2023-03-11T04:59:54.487Z,85.6865234375
2023-03-11T05:00:52.107Z,85.6611328125
2023-03-11T05:01:52.300Z,85.078125
2023-03-11T05:02:52.191Z,85.2177734375
2023-03-11T05:03:52.527Z,85.4658203125
2023-03-11T05:04:52.278Z,85.564453125
2023-03-11T05:05:52.104Z,85.88671875
2023-03-11T05:06:52.100Z,86.2998046875
2023-03-11T05:07:52.524Z,86.322265625
2023-03-11T05:08:52.510Z,86.2890625
2023-03-11T05:09:52.106Z,86.666015625
2023-03-11T05:10:54.542Z,87.0556640625
2023-03-11T05:11:52.114Z,87.169921875
2023-03-11T05:12:52.109Z,87.41796875
2023-03-11T05:13:52.526Z,87.4736328125
2023-03-11T05:14:52.173Z,87.7197265625
2023-03-11T05:15:52.136Z,87.7919921875
2023-03-11T05:16:52.124Z,87.7119140625
2023-03-11T05:17:52.103Z,87.9375
2023-03-11T05:18:52.532Z,88.072265625
2023-03-11T05:19:52.137Z,87.8173828125
2023-03-11T05:20:52.244Z,87.3427734375
2023-03-11T05:21:54.467Z,87.0078125
2023-03-11T05:22:52.508Z,87.2568359375
2023-03-11T05:23:52.502Z,87.4482421875
2023-03-11T05:24:52.103Z,87.255859375
2023-03-11T05:25:52.104Z,87.1044921875
2023-03-11T05:26:52.098Z,87.0869140625
2023-03-11T05:27:52.240Z,86.98828125
2023-03-11T05:28:52.514Z,86.701171875
2023-03-11T05:29:52.107Z,84.986328125
2023-03-11T05:30:52.156Z,84.484375
2023-03-11T05:31:52.133Z,84.57421875
2023-03-11T05:32:54.617Z,84.64453125
2023-03-11T05:33:52.773Z,84.703125
2023-03-11T05:34:52.127Z,84.701171875
2023-03-11T05:35:52.279Z,84.2802734375
2023-03-11T05:36:52.129Z,84.412109375
2023-03-11T05:37:52.595Z,84.7451171875
2023-03-11T05:38:52.508Z,84.8349609375
2023-03-11T05:39:52.125Z,84.6123046875
2023-03-11T05:40:52.131Z,84.541015625
2023-03-11T05:41:52.127Z,84.505859375
2023-03-11T05:42:52.120Z,84.390625
2023-03-11T05:43:54.836Z,84.2861328125
2023-03-11T05:44:52.197Z,84.171875
2023-03-11T05:45:52.105Z,84.2431640625
2023-03-11T05:46:52.226Z,84.439453125
2023-03-11T05:47:52.135Z,84.47265625
2023-03-11T05:48:52.512Z,84.4580078125
2023-03-11T05:49:52.143Z,84.52734375
2023-03-11T05:50:52.245Z,84.732421875
2023-03-11T05:51:52.137Z,84.724609375
2023-03-11T05:52:52.277Z,84.39453125
2023-03-11T05:53:52.528Z,84.31640625
2023-03-11T05:54:54.500Z,84.736328125
2023-03-11T05:55:52.142Z,85.2919921875
2023-03-11T05:56:52.127Z,85.341796875
2023-03-11T05:57:52.289Z,85.0185546875
2023-03-11T05:58:52.534Z,85.275390625
2023-03-11T05:59:52.105Z,85.275390625
2023-03-11T06:00:52.339Z,85.578125
2023-03-11T06:01:52.203Z,85.3193359375
2023-03-11T06:02:52.241Z,85.498046875
2023-03-11T06:03:52.604Z,85.3720703125
2023-03-11T06:04:52.305Z,85.359375
2023-03-11T06:05:54.453Z,85.3154296875
2023-03-11T06:06:52.136Z,85.3515625
2023-03-11T06:07:52.501Z,85.36328125
2023-03-11T06:08:52.201Z,85.3388671875
2023-03-11T06:09:52.100Z,84.9306640625
2023-03-11T06:10:52.128Z,84.7919921875
2023-03-11T06:11:52.077Z,84.828125
2023-03-11T06:12:52.130Z,84.6748046875
2023-03-11T06:13:52.518Z,84.9716796875
2023-03-11T06:14:52.147Z,84.8251953125
2023-03-11T06:15:52.182Z,84.3251953125
2023-03-11T06:16:54.535Z,83.759765625
2023-03-11T06:17:52.110Z,83.5166015625
2023-03-11T06:18:52.511Z,83.19140625
2023-03-11T06:19:52.116Z,82.9140625
2023-03-11T06:20:52.105Z,82.8037109375
2023-03-11T06:21:52.248Z,82.853515625
2023-03-11T06:22:52.534Z,82.5673828125
2023-03-11T06:23:52.517Z,81.912109375
2023-03-11T06:24:52.103Z,81.7880859375
2023-03-11T06:25:52.284Z,81.6494140625
2023-03-11T06:26:52.118Z,81.794921875
2023-03-11T06:27:54.519Z,81.82421875
2023-03-11T06:28:52.528Z,81.8798828125
2023-03-11T06:29:52.096Z,81.3271484375
2023-03-11T06:30:52.106Z,80.6767578125
2023-03-11T06:31:52.163Z,80.16796875
2023-03-11T06:32:52.142Z,80.025390625
2023-03-11T06:33:52.510Z,79.8212890625
2023-03-11T06:34:52.133Z,79.5498046875
2023-03-11T06:35:52.164Z,80.0224609375
2023-03-11T06:36:52.107Z,80.3583984375
2023-03-11T06:37:52.497Z,80.2548828125
2023-03-11T06:38:57.085Z,79.833984375
2023-03-11T06:39:52.122Z,79.7275390625
2023-03-11T06:40:52.119Z,79.6337890625
2023-03-11T06:41:52.250Z,79.43359375
2023-03-11T06:42:52.104Z,79.1044921875
2023-03-11T06:43:52.520Z,78.9013671875
2023-03-11T06:44:52.081Z,78.98828125
2023-03-11T06:45:52.129Z,78.931640625
2023-03-11T06:46:52.070Z,78.40234375
2023-03-11T06:47:52.122Z,78.369140625
2023-03-11T06:48:52.343Z,78.6318359375
2023-03-11T06:49:54.494Z,78.9345703125
2023-03-11T06:50:52.115Z,78.4140625
2023-03-11T06:51:52.118Z,78.2509765625
2023-03-11T06:52:52.539Z,78.138671875
2023-03-11T06:53:52.569Z,77.8115234375
2023-03-11T06:54:52.124Z,77.892578125
2023-03-11T06:55:52.120Z,77.3115234375
2023-03-11T06:56:52.237Z,77.443359375
2023-03-11T06:57:52.122Z,77.4091796875
2023-03-11T06:58:52.529Z,77.4150390625
2023-03-11T06:59:52.142Z,77.5810546875
2023-03-11T07:00:54.435Z,77.177734375
2023-03-11T07:01:52.221Z,76.904296875
2023-03-11T07:02:52.111Z,76.4453125
2023-03-11T07:03:52.569Z,76.2919921875
2023-03-11T07:04:52.125Z,75.6396484375
2023-03-11T07:05:52.106Z,75.578125
2023-03-11T07:06:52.125Z,75.771484375
2023-03-11T07:07:52.530Z,75.6376953125
2023-03-11T07:08:52.649Z,75.642578125
2023-03-11T07:09:52.190Z,75.4443359375
2023-03-11T07:10:52.117Z,75.794921875
2023-03-11T07:11:54.576Z,75.759765625
2023-03-11T07:12:52.293Z,75.6923828125
2023-03-11T07:13:52.510Z,75.71484375
2023-03-11T07:14:52.115Z,75.6279296875
2023-03-11T07:15:52.109Z,76.224609375
2023-03-11T07:16:52.201Z,76.4599609375
2023-03-11T07:17:52.137Z,76.5107421875
2023-03-11T07:18:52.531Z,75.974609375
2023-03-11T07:19:52.143Z,75.86328125
2023-03-11T07:20:52.269Z,75.76953125
2023-03-11T07:21:52.222Z,75.2470703125
2023-03-11T07:22:56.979Z,74.953125
2023-03-11T07:23:52.591Z,74.783203125
2023-03-11T07:24:52.118Z,74.404296875
2023-03-11T07:25:52.131Z,73.955078125
2023-03-11T07:26:52.108Z,72.734375
2023-03-11T07:27:52.122Z,72.7353515625
2023-03-11T07:28:52.515Z,72.1708984375
2023-03-11T07:29:52.266Z,71.392578125
2023-03-11T07:30:52.197Z,70.7880859375
2023-03-11T07:31:52.297Z,70.34375
2023-03-11T07:32:52.327Z,70.4951171875
2023-03-11T07:33:56.972Z,70.21875
2023-03-11T07:34:52.114Z,69.697265625
2023-03-11T07:35:52.201Z,69.775390625
2023-03-11T07:36:52.117Z,69.4990234375
2023-03-11T07:37:52.521Z,69.1875
2023-03-11T07:38:52.512Z,69.318359375
2023-03-11T07:39:52.108Z,69.8564453125
2023-03-11T07:40:52.088Z,69.623046875
2023-03-11T07:41:52.105Z,70.318359375
2023-03-11T07:42:52.124Z,70.302734375
2023-03-11T07:43:52.531Z,69.677734375
2023-03-11T07:44:54.475Z,69.798828125
2023-03-11T07:45:52.260Z,69.3291015625
2023-03-11T07:46:52.132Z,69.32421875
2023-03-11T07:47:52.121Z,69.0888671875
2023-03-11T07:48:52.512Z,67.9794921875
2023-03-11T07:49:52.106Z,67.1826171875
2023-03-11T07:50:52.149Z,66.9931640625
2023-03-11T07:51:52.122Z,67.400390625
2023-03-11T07:52:52.525Z,67.4248046875
2023-03-11T07:53:52.535Z,66.708984375
2023-03-11T07:54:52.115Z,65.703125
2023-03-11T07:55:54.468Z,65.4765625
2023-03-11T07:56:52.121Z,64.79296875
2023-03-11T07:57:52.120Z,64.63671875
2023-03-11T07:58:52.500Z,64.296875
2023-03-11T07:59:52.109Z,64.59375
2023-03-11T08:00:52.113Z,64.5302734375
2023-03-11T08:01:52.112Z,64.220703125
2023-03-11T08:02:52.140Z,64.7451171875
2023-03-11T08:03:52.593Z,64.494140625
2023-03-11T08:04:52.087Z,64.7900390625
2023-03-11T08:05:52.112Z,64.8681640625
2023-03-11T08:06:54.479Z,65.138671875
2023-03-11T08:07:52.508Z,64.931640625
2023-03-11T08:08:52.517Z,65.39453125
2023-03-11T08:09:52.100Z,65.384765625
2023-03-11T08:10:52.109Z,65.24609375
2023-03-11T08:11:52.128Z,64.849609375
2023-03-11T08:12:52.176Z,64.81640625
2023-03-11T08:13:52.200Z,64.470703125
2023-03-11T08:14:52.126Z,64.3095703125
2023-03-11T08:15:52.114Z,63.8916015625
2023-03-11T08:16:52.129Z,64.126953125
2023-03-11T08:17:54.475Z,64.220703125
2023-03-11T08:18:52.501Z,64.36328125
2023-03-11T08:19:52.237Z,63.900390625
2023-03-11T08:20:52.108Z,64.2470703125
2023-03-11T08:21:52.116Z,64.5185546875
2023-03-11T08:22:58.183Z,64.73828125
2023-03-11T08:23:52.523Z,64.7919921875
2023-03-11T08:24:52.149Z,65.2216796875
2023-03-11T08:25:52.110Z,65.4130859375
2023-03-11T08:26:52.107Z,65.6669921875
2023-03-11T08:27:52.090Z,65.6611328125
2023-03-11T08:28:56.946Z,66.181640625
2023-03-11T08:29:52.192Z,66.4912109375
2023-03-11T08:30:52.165Z,66.26953125
2023-03-11T08:31:52.085Z,66.4345703125
2023-03-11T08:32:52.190Z,66.3642578125
2023-03-11T08:33:52.536Z,66.3828125
2023-03-11T08:34:52.256Z,65.9033203125
2023-03-11T08:35:52.154Z,65.125
2023-03-11T08:36:52.120Z,65.30859375
2023-03-11T08:37:52.523Z,65.2548828125
2023-03-11T08:38:52.529Z,65.0302734375
2023-03-11T08:39:54.489Z,64.849609375
2023-03-11T08:40:52.106Z,64.8662109375
2023-03-11T08:41:52.124Z,65.0966796875
2023-03-11T08:42:52.188Z,64.4794921875
2023-03-11T08:43:52.130Z,63.9990234375
2023-03-11T08:44:52.123Z,62.9453125
2023-03-11T08:45:52.132Z,62.1474609375
2023-03-11T08:46:52.148Z,61.0947265625
2023-03-11T08:47:52.127Z,60.05859375
2023-03-11T08:48:52.528Z,58.2578125
2023-03-11T08:49:52.118Z,57.2021484375
2023-03-11T08:50:54.906Z,57.173828125
2023-03-11T08:51:52.115Z,57.4560546875
2023-03-11T08:52:52.506Z,56.927734375
2023-03-11T08:53:52.253Z,56.392578125
2023-03-11T08:54:52.104Z,56.8798828125
2023-03-11T08:55:52.137Z,56.1103515625
2023-03-11T08:56:52.116Z,55.4443359375
2023-03-11T08:57:52.103Z,55.56640625
2023-03-11T08:58:52.531Z,55.65625
2023-03-11T08:59:52.232Z,56.0322265625
2023-03-11T09:00:52.143Z,55.8017578125
2023-03-11T09:01:54.474Z,56.4111328125
2023-03-11T09:02:52.334Z,56.8837890625
2023-03-11T09:03:52.544Z,57.1083984375
2023-03-11T09:04:52.116Z,57.435546875
2023-03-11T09:05:52.247Z,57.8349609375
2023-03-11T09:06:52.249Z,57.9609375
2023-03-11T09:07:52.510Z,57.876953125
2023-03-11T09:08:52.536Z,57.474609375
2023-03-11T09:09:52.214Z,57.2255859375
2023-03-11T09:10:52.098Z,56.478515625
2023-03-11T09:11:52.136Z,55.8466796875
2023-03-11T09:12:54.426Z,55.9404296875
2023-03-11T09:13:52.524Z,56.173828125
2023-03-11T09:14:52.108Z,56.5009765625
2023-03-11T09:15:52.154Z,57.537109375
2023-03-11T09:16:52.237Z,58.056640625
2023-03-11T09:17:52.152Z,59.041015625
2023-03-11T09:18:52.550Z,59.5302734375
2023-03-11T09:19:52.102Z,59.7568359375
2023-03-11T09:20:52.126Z,60.259765625
2023-03-11T09:21:52.116Z,59.9482421875
2023-03-11T09:22:52.159Z,60.6435546875
2023-03-11T09:23:57.073Z,60.748046875
2023-03-11T09:24:52.123Z,61.01171875
2023-03-11T09:25:52.114Z,61.8076171875
2023-03-11T09:26:52.182Z,62.119140625
2023-03-11T09:27:52.119Z,62.4033203125
2023-03-11T09:28:52.614Z,62.9599609375
2023-03-11T09:29:52.108Z,63.310546875
2023-03-11T09:30:52.123Z,63.240234375
2023-03-11T09:31:52.158Z,63.560546875
2023-03-11T09:32:52.139Z,63.681640625
2023-03-11T09:33:52.189Z,63.4365234375
2023-03-11T09:34:54.494Z,62.6328125
2023-03-11T09:35:52.193Z,62.6083984375
2023-03-11T09:36:52.124Z,62.013671875
2023-03-11T09:37:52.672Z,61.166015625
2023-03-11T09:38:52.227Z,59.185546875
2023-03-11T09:39:52.089Z,59.408203125
2023-03-11T09:40:52.278Z,58.9453125
2023-03-11T09:41:58.490Z,58.54296875
2023-03-11T09:42:52.123Z,58.259765625
2023-03-11T09:43:52.520Z,58.0771484375
2023-03-11T09:44:52.104Z,56.6533203125
2023-03-11T09:45:54.599Z,56.634765625
2023-03-11T09:46:52.222Z,56.4375
2023-03-11T09:47:52.103Z,55.455078125
2023-03-11T09:48:52.260Z,55.4814453125
2023-03-11T09:49:52.202Z,54.5869140625
2023-03-11T09:50:52.151Z,54.7802734375
2023-03-11T09:51:52.135Z,54.49609375
2023-03-11T09:52:52.158Z,53.794921875
2023-03-11T09:53:52.182Z,54.244140625
2023-03-11T09:54:52.107Z,56.046875
2023-03-11T09:55:52.139Z,56.4111328125
2023-03-11T09:56:54.452Z,57.298828125
2023-03-11T09:57:52.118Z,57.564453125
2023-03-11T09:58:52.542Z,57.4140625
2023-03-11T09:59:52.119Z,56.5546875
2023-03-11T10:00:52.147Z,56.44140625
2023-03-11T10:01:52.187Z,55.56640625
2023-03-11T10:02:52.229Z,55.6630859375
2023-03-11T10:03:52.520Z,55.4384765625
2023-03-11T10:04:52.119Z,55.5537109375
2023-03-11T10:05:52.261Z,54.8193359375
2023-03-11T10:06:52.099Z,54.5458984375
2023-03-11T10:07:56.924Z,54.6640625
2023-03-11T10:08:52.232Z,54.3154296875
2023-03-11T10:09:52.108Z,55.3388671875
2023-03-11T10:10:52.222Z,55.197265625
2023-03-11T10:11:52.131Z,54.7421875
2023-03-11T10:12:52.100Z,54.876953125
2023-03-11T10:13:52.534Z,54.2412109375
2023-03-11T10:14:52.236Z,53.556640625
2023-03-11T10:15:52.110Z,52.88671875
2023-03-11T10:16:52.100Z,51.7978515625
2023-03-11T10:17:52.106Z,50.568359375
2023-03-11T10:18:54.602Z,49.45703125
2023-03-11T10:19:52.114Z,47.923828125
2023-03-11T10:20:52.230Z,46.6552734375
2023-03-11T10:21:52.101Z,44.96875
2023-03-11T10:22:52.497Z,45.05859375
2023-03-11T10:23:52.156Z,45.3935546875
2023-03-11T10:24:52.107Z,47.2822265625
2023-03-11T10:25:52.239Z,47.2021484375
2023-03-11T10:26:52.107Z,48.357421875
2023-03-11T10:27:52.123Z,49.1396484375
2023-03-11T10:28:52.647Z,50.087890625
2023-03-11T10:29:54.478Z,50.619140625
2023-03-11T10:30:52.133Z,50.642578125
2023-03-11T10:31:52.129Z,50.6904296875